sensor_id;sensor_type;location;lat;lon;timestamp;pressure;altitude;pressure_sealevel;temperature;humidity
17060;BME280;8646;49.716;9.266;2023-04-09T00:00:06;101163.72;;;5.60;77.59
17060;BME280;8646;49.716;9.266;2023-04-09T00:03:11;101163.78;;;5.54;77.39
17060;BME280;8646;49.716;9.266;2023-04-09T00:06:14;101159.38;;;5.49;77.61
17060;BME280;8646;49.716;9.266;2023-04-09T00:09:16;101168.34;;;5.46;77.94
17060;BME280;8646;49.716;9.266;2023-04-09T00:12:22;101167.47;;;5.44;78.11
17060;BME280;8646;49.716;9.266;2023-04-09T00:15:25;101162.13;;;5.40;78.27
17060;BME280;8646;49.716;9.266;2023-04-09T00:18:32;101161.31;;;5.34;78.52
17060;BME280;8646;49.716;9.266;2023-04-09T00:21:34;101149.69;;;5.28;78.72
17060;BME280;8646;49.716;9.266;2023-04-09T00:24:37;101155.13;;;5.23;78.67
17060;BME280;8646;49.716;9.266;2023-04-09T00:27:41;101158.69;;;5.21;78.71
17060;BME280;8646;49.716;9.266;2023-04-09T00:30:44;101159.66;;;5.17;78.65
17060;BME280;8646;49.716;9.266;2023-04-09T00:33:47;101155.19;;;5.13;78.83
17060;BME280;8646;49.716;9.266;2023-04-09T00:36:49;101157.91;;;5.10;78.91
17060;BME280;8646;49.716;9.266;2023-04-09T00:39:52;101152.56;;;5.04;78.79
17060;BME280;8646;49.716;9.266;2023-04-09T00:42:56;101153.50;;;4.96;79.05
17060;BME280;8646;49.716;9.266;2023-04-09T00:45:59;101153.56;;;4.90;79.08
17060;BME280;8646;49.716;9.266;2023-04-09T00:49:02;101150.03;;;4.85;78.80
17060;BME280;8646;49.716;9.266;2023-04-09T00:52:07;101150.03;;;4.82;79.02
17060;BME280;8646;49.716;9.266;2023-04-09T00:55:11;101160.78;;;4.79;79.16
17060;BME280;8646;49.716;9.266;2023-04-09T00:58:15;101165.25;;;4.79;79.25
17060;BME280;8646;49.716;9.266;2023-04-09T01:01:18;101162.59;;;4.74;79.33
17060;BME280;8646;49.716;9.266;2023-04-09T01:04:22;101167.06;;;4.71;79.40
17060;BME280;8646;49.716;9.266;2023-04-09T01:07:33;101153.72;;;4.66;79.25
17060;BME280;8646;49.716;9.266;2023-04-09T01:10:42;101155.50;;;4.64;79.48
17060;BME280;8646;49.716;9.266;2023-04-09T01:13:51;101158.19;;;4.63;79.64
17060;BME280;8646;49.716;9.266;2023-04-09T01:17:02;101159.13;;;4.55;79.66
17060;BME280;8646;49.716;9.266;2023-04-09T01:20:10;101160.03;;;4.51;79.56
17060;BME280;8646;49.716;9.266;2023-04-09T01:23:17;101159.16;;;4.48;79.57
17060;BME280;8646;49.716;9.266;2023-04-09T01:26:29;101146.69;;;4.44;79.74
17060;BME280;8646;49.716;9.266;2023-04-09T01:29:44;101150.28;;;4.37;79.97
17060;BME280;8646;49.716;9.266;2023-04-09T01:32:48;101156.53;;;4.36;80.02
17060;BME280;8646;49.716;9.266;2023-04-09T01:35:53;101162.81;;;4.35;79.99
17060;BME280;8646;49.716;9.266;2023-04-09T01:38:56;101158.34;;;4.35;80.13
17060;BME280;8646;49.716;9.266;2023-04-09T01:41:59;101153.88;;;4.31;80.36
17060;BME280;8646;49.716;9.266;2023-04-09T01:45:07;101165.50;;;4.29;80.35
17060;BME280;8646;49.716;9.266;2023-04-09T01:48:12;101166.41;;;4.28;80.42
17060;BME280;8646;49.716;9.266;2023-04-09T01:51:16;101167.28;;;4.23;80.26
17060;BME280;8646;49.716;9.266;2023-04-09T01:54:19;101160.19;;;4.19;80.39
17060;BME280;8646;49.716;9.266;2023-04-09T01:57:22;101171.78;;;4.17;80.68
17060;BME280;8646;49.716;9.266;2023-04-09T02:00:30;101164.69;;;4.13;80.43
17060;BME280;8646;49.716;9.266;2023-04-09T02:03:40;101172.72;;;4.10;80.47
17060;BME280;8646;49.716;9.266;2023-04-09T02:06:50;101163.78;;;4.08;80.51
17060;BME280;8646;49.716;9.266;2023-04-09T02:09:56;101168.28;;;4.04;80.55
17060;BME280;8646;49.716;9.266;2023-04-09T02:13:02;101168.28;;;4.01;80.68
17060;BME280;8646;49.716;9.266;2023-04-09T02:16:10;101166.47;;;4.00;80.63
17060;BME280;8646;49.716;9.266;2023-04-09T02:19:13;101170.06;;;3.99;80.69
17060;BME280;8646;49.716;9.266;2023-04-09T02:22:16;101163.81;;;3.99;80.47
17060;BME280;8646;49.716;9.266;2023-04-09T02:25:22;101164.69;;;4.01;80.47
17060;BME280;8646;49.716;9.266;2023-04-09T02:28:24;101165.59;;;4.03;80.55
17060;BME280;8646;49.716;9.266;2023-04-09T02:31:29;101162.91;;;4.01;80.54
17060;BME280;8646;49.716;9.266;2023-04-09T02:34:32;101165.59;;;4.03;80.55
17060;BME280;8646;49.716;9.266;2023-04-09T02:37:35;101166.50;;;4.05;80.62
17060;BME280;8646;49.716;9.266;2023-04-09T02:40:38;101162.88;;;4.06;80.54
17060;BME280;8646;49.716;9.266;2023-04-09T02:43:41;101162.00;;;4.07;80.55
17060;BME280;8646;49.716;9.266;2023-04-09T02:46:46;101161.09;;;4.06;80.75
17060;BME280;8646;49.716;9.266;2023-04-09T02:49:49;101160.22;;;4.10;80.58
17060;BME280;8646;49.716;9.266;2023-04-09T02:52:52;101161.97;;;4.16;80.65
17060;BME280;8646;49.716;9.266;2023-04-09T02:55:55;101160.16;;;4.26;80.64
17060;BME280;8646;49.716;9.266;2023-04-09T02:58:57;101165.50;;;4.29;80.86
17060;BME280;8646;49.716;9.266;2023-04-09T03:02:01;101156.53;;;4.33;80.66
17060;BME280;8646;49.716;9.266;2023-04-09T03:05:05;101153.84;;;4.42;80.51
17060;BME280;8646;49.716;9.266;2023-04-09T03:08:08;101143.97;;;4.50;80.67
17060;BME280;8646;49.716;9.266;2023-04-09T03:11:11;101139.47;;;4.55;80.51
17060;BME280;8646;49.716;9.266;2023-04-09T03:14:14;101142.09;;;4.64;80.55
17060;BME280;8646;49.716;9.266;2023-04-09T03:17:18;101147.44;;;4.70;80.47
17060;BME280;8646;49.716;9.266;2023-04-09T03:20:21;101136.69;;;4.76;80.48
17060;BME280;8646;49.716;9.266;2023-04-09T03:23:24;101137.53;;;4.84;80.38
17060;BME280;8646;49.716;9.266;2023-04-09T03:26:29;101126.75;;;4.89;80.13
17060;BME280;8646;49.716;9.266;2023-04-09T03:29:36;101130.31;;;4.92;80.33
17060;BME280;8646;49.716;9.266;2023-04-09T03:32:40;101134.72;;;4.96;80.20
17060;BME280;8646;49.716;9.266;2023-04-09T03:35:43;101130.25;;;4.98;80.24
17060;BME280;8646;49.716;9.266;2023-04-09T03:38:46;101132.00;;;5.04;79.93
17060;BME280;8646;49.716;9.266;2023-04-09T03:41:49;101132.88;;;5.08;80.04
17060;BME280;8646;49.716;9.266;2023-04-09T03:44:52;101131.03;;;5.11;80.18
17060;BME280;8646;49.716;9.266;2023-04-09T03:47:56;101137.28;;;5.18;80.10
17060;BME280;8646;49.716;9.266;2023-04-09T03:50:59;101133.69;;;5.19;79.91
17060;BME280;8646;49.716;9.266;2023-04-09T03:54:09;101131.84;;;5.24;80.08
17060;BME280;8646;49.716;9.266;2023-04-09T03:57:12;101131.84;;;5.27;80.11
17060;BME280;8646;49.716;9.266;2023-04-09T04:00:15;101132.69;;;5.30;79.86
17060;BME280;8646;49.716;9.266;2023-04-09T04:03:19;101137.16;;;5.33;80.15
17060;BME280;8646;49.716;9.266;2023-04-09T04:06:22;101137.09;;;5.36;79.91
17060;BME280;8646;49.716;9.266;2023-04-09T04:09:24;101135.31;;;5.38;79.89
17060;BME280;8646;49.716;9.266;2023-04-09T04:12:27;101128.13;;;5.38;79.81
17060;BME280;8646;49.716;9.266;2023-04-09T04:15:30;101132.63;;;5.40;79.85
17060;BME280;8646;49.716;9.266;2023-04-09T04:18:34;101131.72;;;5.42;79.96
17060;BME280;8646;49.716;9.266;2023-04-09T04:21:36;101132.56;;;5.44;79.93
17060;BME280;8646;49.716;9.266;2023-04-09T04:24:39;101145.06;;;5.47;80.19
17060;BME280;8646;49.716;9.266;2023-04-09T04:27:42;101143.28;;;5.47;80.12
17060;BME280;8646;49.716;9.266;2023-04-09T04:30:44;101145.06;;;5.50;79.97
17060;BME280;8646;49.716;9.266;2023-04-09T04:33:49;101151.31;;;5.50;79.93
17060;BME280;8646;49.716;9.266;2023-04-09T04:36:51;101142.38;;;5.51;80.32
17060;BME280;8646;49.716;9.266;2023-04-09T04:39:54;101146.88;;;5.45;80.80
17060;BME280;8646;49.716;9.266;2023-04-09T04:42:57;101143.34;;;5.43;80.81
17060;BME280;8646;49.716;9.266;2023-04-09T04:45:59;101151.34;;;5.44;80.70
17060;BME280;8646;49.716;9.266;2023-04-09T04:49:04;101150.44;;;5.48;80.72
17060;BME280;8646;49.716;9.266;2023-04-09T04:52:06;101152.16;;;5.54;80.94
17060;BME280;8646;49.716;9.266;2023-04-09T04:55:09;101150.34;;;5.57;80.96
17060;BME280;8646;49.716;9.266;2023-04-09T04:58:12;101153.00;;;5.60;80.53
17060;BME280;8646;49.716;9.266;2023-04-09T05:01:15;101150.28;;;5.63;80.61
17060;BME280;8646;49.716;9.266;2023-04-09T05:04:19;101148.44;;;5.70;80.63
17060;BME280;8646;49.716;9.266;2023-04-09T05:07:22;101153.81;;;5.68;80.92
17060;BME280;8646;49.716;9.266;2023-04-09T05:10:25;101161.84;;;5.71;80.89
17060;BME280;8646;49.716;9.266;2023-04-09T05:13:28;101148.34;;;5.78;81.05
17060;BME280;8646;49.716;9.266;2023-04-09T05:16:30;101153.69;;;5.82;80.59
17060;BME280;8646;49.716;9.266;2023-04-09T05:19:35;101154.53;;;5.86;80.67
17060;BME280;8646;49.716;9.266;2023-04-09T05:22:37;101153.66;;;5.90;80.72
17060;BME280;8646;49.716;9.266;2023-04-09T05:25:40;101161.66;;;5.93;80.67
17060;BME280;8646;49.716;9.266;2023-04-09T05:28:43;101158.94;;;5.97;80.83
17060;BME280;8646;49.716;9.266;2023-04-09T05:31:45;101158.03;;;6.00;80.92
17060;BME280;8646;49.716;9.266;2023-04-09T05:34:50;101158.03;;;6.00;81.54
17060;BME280;8646;49.716;9.266;2023-04-09T05:37:52;101157.97;;;6.03;81.89
17060;BME280;8646;49.716;9.266;2023-04-09T05:40:55;101158.84;;;6.03;82.24
17060;BME280;8646;49.716;9.266;2023-04-09T05:43:58;101158.88;;;6.02;82.40
17060;BME280;8646;49.716;9.266;2023-04-09T05:47:01;101157.06;;;6.02;82.75
17060;BME280;8646;49.716;9.266;2023-04-09T05:50:06;101157.97;;;6.03;83.28
17060;BME280;8646;49.716;9.266;2023-04-09T05:53:09;101159.75;;;6.02;83.34
17060;BME280;8646;49.716;9.266;2023-04-09T05:56:12;101152.53;;;6.09;83.40
17060;BME280;8646;49.716;9.266;2023-04-09T05:59:15;101152.53;;;6.09;83.68
17060;BME280;8646;49.716;9.266;2023-04-09T06:02:18;101150.69;;;6.16;83.59
17060;BME280;8646;49.716;9.266;2023-04-09T06:05:27;101152.31;;;6.27;83.85
17060;BME280;8646;49.716;9.266;2023-04-09T06:08:30;101150.53;;;6.26;83.92
17060;BME280;8646;49.716;9.266;2023-04-09T06:11:33;101154.00;;;6.34;83.53
17060;BME280;8646;49.716;9.266;2023-04-09T06:14:36;101152.09;;;6.44;83.43
17060;BME280;8646;49.716;9.266;2023-04-09T06:17:39;101153.78;;;6.53;83.39
17060;BME280;8646;49.716;9.266;2023-04-09T06:20:43;101161.78;;;6.57;83.67
17060;BME280;8646;49.716;9.266;2023-04-09T06:23:46;101161.72;;;6.63;83.39
17060;BME280;8646;49.716;9.266;2023-04-09T06:26:49;101164.28;;;6.72;83.29
17060;BME280;8646;49.716;9.266;2023-04-09T06:29:51;101161.41;;;6.84;82.96
17060;BME280;8646;49.716;9.266;2023-04-09T06:32:54;101166.53;;;7.04;82.55
17060;BME280;8646;49.716;9.266;2023-04-09T06:35:58;101154.63;;;7.19;82.01
17060;BME280;8646;49.716;9.266;2023-04-09T06:39:02;101157.97;;;7.35;81.59
17060;BME280;8646;49.716;9.266;2023-04-09T06:42:04;101154.13;;;7.48;81.29
17060;BME280;8646;49.716;9.266;2023-04-09T06:45:08;101160.22;;;7.60;80.73
17060;BME280;8646;49.716;9.266;2023-04-09T06:48:11;101161.00;;;7.67;80.23
17060;BME280;8646;49.716;9.266;2023-04-09T06:51:15;101164.47;;;7.72;79.71
17060;BME280;8646;49.716;9.266;2023-04-09T06:54:18;101165.34;;;7.74;79.53
17060;BME280;8646;49.716;9.266;2023-04-09T06:57:20;101160.72;;;7.82;79.58
17060;BME280;8646;49.716;9.266;2023-04-09T07:00:23;101161.44;;;7.92;79.35
17060;BME280;8646;49.716;9.266;2023-04-09T07:03:26;101171.97;;;8.04;78.78
17060;BME280;8646;49.716;9.266;2023-04-09T07:06:32;101174.47;;;8.15;78.29
17060;BME280;8646;49.716;9.266;2023-04-09T07:09:34;101177.00;;;8.24;78.47
17060;BME280;8646;49.716;9.266;2023-04-09T07:12:37;101170.47;;;8.37;77.72
17060;BME280;8646;49.716;9.266;2023-04-09T07:15:40;101172.94;;;8.48;77.33
17060;BME280;8646;49.716;9.266;2023-04-09T07:18:43;101175.59;;;8.51;77.12
17060;BME280;8646;49.716;9.266;2023-04-09T07:21:47;101175.50;;;8.55;77.61
17060;BME280;8646;49.716;9.266;2023-04-09T07:24:52;101169.91;;;8.64;77.49
17060;BME280;8646;49.716;9.266;2023-04-09T07:27:55;101170.47;;;8.78;77.35
17060;BME280;8646;49.716;9.266;2023-04-09T07:31:00;101166.47;;;8.98;76.74
17060;BME280;8646;49.716;9.266;2023-04-09T07:34:03;101164.97;;;9.23;76.25
17060;BME280;8646;49.716;9.266;2023-04-09T07:37:08;101162.22;;;9.60;76.17
17060;BME280;8646;49.716;9.266;2023-04-09T07:40:11;101161.91;;;10.06;75.38
17060;BME280;8646;49.716;9.266;2023-04-09T07:43:13;101135.81;;;10.38;74.10
17060;BME280;8646;49.716;9.266;2023-04-09T07:46:18;101142.81;;;10.74;72.25
17060;BME280;8646;49.716;9.266;2023-04-09T07:49:21;101139.09;;;10.78;71.69
17060;BME280;8646;49.716;9.266;2023-04-09T07:52:25;101143.41;;;10.85;71.64
17060;BME280;8646;49.716;9.266;2023-04-09T07:55:28;101141.47;;;10.89;71.18
17060;BME280;8646;49.716;9.266;2023-04-09T07:58:30;101127.84;;;10.92;69.80
17060;BME280;8646;49.716;9.266;2023-04-09T08:01:33;101137.06;;;10.86;69.74
17060;BME280;8646;49.716;9.266;2023-04-09T08:04:36;101131.03;;;10.77;70.62
17060;BME280;8646;49.716;9.266;2023-04-09T08:07:40;101127.97;;;10.87;70.23
17060;BME280;8646;49.716;9.266;2023-04-09T08:10:43;101133.69;;;10.78;70.68
17060;BME280;8646;49.716;9.266;2023-04-09T08:13:46;101131.72;;;10.83;71.66
17060;BME280;8646;49.716;9.266;2023-04-09T08:16:50;101143.28;;;10.88;71.61
17060;BME280;8646;49.716;9.266;2023-04-09T08:19:52;101136.94;;;10.89;71.48
17060;BME280;8646;49.716;9.266;2023-04-09T08:22:58;101135.69;;;11.01;70.77
17060;BME280;8646;49.716;9.266;2023-04-09T08:26:00;101138.63;;;10.93;69.21
17060;BME280;8646;49.716;9.266;2023-04-09T08:29:04;101135.16;;;10.88;68.71
17060;BME280;8646;49.716;9.266;2023-04-09T08:32:07;101140.41;;;10.94;69.26
17060;BME280;8646;49.716;9.266;2023-04-09T08:35:10;101138.09;;;11.10;68.39
17060;BME280;8646;49.716;9.266;2023-04-09T08:38:14;101147.81;;;11.17;68.48
17060;BME280;8646;49.716;9.266;2023-04-09T08:41:18;101138.81;;;11.15;68.26
17060;BME280;8646;49.716;9.266;2023-04-09T08:44:24;101141.25;;;11.24;68.23
17060;BME280;8646;49.716;9.266;2023-04-09T08:47:27;101133.59;;;11.37;67.78
17060;BME280;8646;49.716;9.266;2023-04-09T08:50:31;101144.13;;;11.46;67.24
17060;BME280;8646;49.716;9.266;2023-04-09T08:53:36;101136.66;;;11.53;67.18
17060;BME280;8646;49.716;9.266;2023-04-09T08:56:40;101149.38;;;11.78;65.88
17060;BME280;8646;49.716;9.266;2023-04-09T08:59:42;101136.00;;;11.99;63.06
17060;BME280;8646;49.716;9.266;2023-04-09T09:03:01;101124.88;;;12.06;63.02
17060;BME280;8646;49.716;9.266;2023-04-09T09:06:19;101123.19;;;12.27;60.99
17060;BME280;8646;49.716;9.266;2023-04-09T09:09:24;101124.63;;;12.37;61.21
17060;BME280;8646;49.716;9.266;2023-04-09T09:12:35;101094.34;;;12.94;57.40
17060;BME280;8646;49.716;9.266;2023-04-09T09:15:38;101096.47;;;12.86;57.29
17060;BME280;8646;49.716;9.266;2023-04-09T09:18:42;101099.81;;;12.93;56.39
17060;BME280;8646;49.716;9.266;2023-04-09T09:21:54;101104.56;;;12.88;56.86
17060;BME280;8646;49.716;9.266;2023-04-09T09:24:58;101107.72;;;12.99;57.12
17060;BME280;8646;49.716;9.266;2023-04-09T09:28:07;101102.59;;;13.36;55.35
17060;BME280;8646;49.716;9.266;2023-04-09T09:31:11;101081.16;;;13.71;55.13
17060;BME280;8646;49.716;9.266;2023-04-09T09:34:14;101085.78;;;13.89;54.33
17060;BME280;8646;49.716;9.266;2023-04-09T09:37:25;101083.59;;;13.97;53.37
17060;BME280;8646;49.716;9.266;2023-04-09T09:40:29;101092.88;;;13.93;53.88
17060;BME280;8646;49.716;9.266;2023-04-09T09:43:38;101100.22;;;13.91;54.11
17060;BME280;8646;49.716;9.266;2023-04-09T09:46:41;101094.69;;;14.13;51.54
17060;BME280;8646;49.716;9.266;2023-04-09T09:49:46;101087.13;;;14.20;51.45
17060;BME280;8646;49.716;9.266;2023-04-09T09:52:51;101079.84;;;14.20;51.33
17060;BME280;8646;49.716;9.266;2023-04-09T09:55:58;101087.94;;;14.22;50.99
17060;BME280;8646;49.716;9.266;2023-04-09T09:59:06;101084.66;;;14.54;50.51
17060;BME280;8646;49.716;9.266;2023-04-09T10:02:15;101076.34;;;14.57;50.06
17060;BME280;8646;49.716;9.266;2023-04-09T10:05:20;101074.78;;;14.51;49.10
17060;BME280;8646;49.716;9.266;2023-04-09T10:08:29;101071.97;;;14.53;48.90
17060;BME280;8646;49.716;9.266;2023-04-09T10:11:36;101073.31;;;14.63;47.85
17060;BME280;8646;49.716;9.266;2023-04-09T10:14:39;101077.88;;;14.63;48.14
17060;BME280;8646;49.716;9.266;2023-04-09T10:17:42;101077.75;;;14.66;48.84
17060;BME280;8646;49.716;9.266;2023-04-09T10:20:50;101070.59;;;14.63;47.55
17060;BME280;8646;49.716;9.266;2023-04-09T10:23:56;101061.41;;;14.66;45.41
17060;BME280;8646;49.716;9.266;2023-04-09T10:27:10;101066.91;;;14.64;44.55
17060;BME280;8646;49.716;9.266;2023-04-09T10:30:33;101064.69;;;14.54;44.65
17060;BME280;8646;49.716;9.266;2023-04-09T10:33:37;101061.25;;;14.50;44.67
17060;BME280;8646;49.716;9.266;2023-04-09T10:36:41;101060.34;;;14.68;44.28
17060;BME280;8646;49.716;9.266;2023-04-09T10:39:46;101061.69;;;14.97;43.48
17060;BME280;8646;49.716;9.266;2023-04-09T10:42:51;101041.22;;;14.88;42.67
17060;BME280;8646;49.716;9.266;2023-04-09T10:45:56;101050.19;;;14.72;43.28
17060;BME280;8646;49.716;9.266;2023-04-09T10:49:15;101029.88;;;14.79;41.28
17060;BME280;8646;49.716;9.266;2023-04-09T10:52:28;101039.13;;;14.94;43.22
17060;BME280;8646;49.716;9.266;2023-04-09T10:55:34;101049.25;;;15.09;44.09
17060;BME280;8646;49.716;9.266;2023-04-09T10:58:39;101038.75;;;15.37;43.83
17060;BME280;8646;49.716;9.266;2023-04-09T11:01:51;101032.13;;;15.60;42.80
17060;BME280;8646;49.716;9.266;2023-04-09T11:05:02;101029.75;;;15.35;41.94
17060;BME280;8646;49.716;9.266;2023-04-09T11:08:09;101031.97;;;15.10;42.74
17060;BME280;8646;49.716;9.266;2023-04-09T11:11:13;101020.63;;;15.36;42.55
17060;BME280;8646;49.716;9.266;2023-04-09T11:14:19;101007.31;;;15.47;39.92
17060;BME280;8646;49.716;9.266;2023-04-09T11:17:22;101021.28;;;15.58;39.47
17060;BME280;8646;49.716;9.266;2023-04-09T11:20:25;101007.94;;;15.35;40.00
17060;BME280;8646;49.716;9.266;2023-04-09T11:23:28;101011.47;;;15.37;39.93
17060;BME280;8646;49.716;9.266;2023-04-09T11:26:35;100994.63;;;15.46;38.53
17060;BME280;8646;49.716;9.266;2023-04-09T11:29:39;101005.88;;;15.57;39.04
17060;BME280;8646;49.716;9.266;2023-04-09T11:32:42;101000.03;;;15.65;39.00
17060;BME280;8646;49.716;9.266;2023-04-09T11:35:46;100989.25;;;15.96;37.54
17060;BME280;8646;49.716;9.266;2023-04-09T11:38:48;100980.25;;;15.94;37.51
17060;BME280;8646;49.716;9.266;2023-04-09T11:41:52;100989.69;;;15.72;38.52
17060;BME280;8646;49.716;9.266;2023-04-09T11:44:56;100987.78;;;15.56;37.32
17060;BME280;8646;49.716;9.266;2023-04-09T11:48:00;100996.53;;;15.27;39.03
17060;BME280;8646;49.716;9.266;2023-04-09T11:51:04;100993.34;;;15.36;38.23
17060;BME280;8646;49.716;9.266;2023-04-09T11:54:07;100994.81;;;15.60;37.62
17060;BME280;8646;49.716;9.266;2023-04-09T11:57:10;100997.22;;;15.67;38.00
17060;BME280;8646;49.716;9.266;2023-04-09T12:00:15;100999.16;;;15.64;37.61
17060;BME280;8646;49.716;9.266;2023-04-09T12:03:26;100992.22;;;15.92;37.63
17060;BME280;8646;49.716;9.266;2023-04-09T12:06:30;100980.41;;;16.24;36.99
17060;BME280;8646;49.716;9.266;2023-04-09T12:09:33;100981.00;;;16.62;36.99
17060;BME280;8646;49.716;9.266;2023-04-09T12:12:47;100976.59;;;16.75;36.07
17060;BME280;8646;49.716;9.266;2023-04-09T12:15:51;100972.81;;;16.94;35.96
17060;BME280;8646;49.716;9.266;2023-04-09T12:19:00;100980.00;;;16.95;35.83
17060;BME280;8646;49.716;9.266;2023-04-09T12:22:03;100976.66;;;16.90;36.10
17060;BME280;8646;49.716;9.266;2023-04-09T12:25:06;100947.19;;;16.95;35.61
17060;BME280;8646;49.716;9.266;2023-04-09T12:28:10;100957.94;;;17.13;35.76
17060;BME280;8646;49.716;9.266;2023-04-09T12:31:15;100965.50;;;17.24;35.93
17060;BME280;8646;49.716;9.266;2023-04-09T12:34:18;100976.41;;;16.94;35.81
17060;BME280;8646;49.716;9.266;2023-04-09T12:37:21;100966.63;;;16.74;35.28
17060;BME280;8646;49.716;9.266;2023-04-09T12:40:24;100967.88;;;16.69;35.23
17060;BME280;8646;49.716;9.266;2023-04-09T12:43:27;100965.19;;;16.99;35.54
17060;BME280;8646;49.716;9.266;2023-04-09T12:46:31;100963.69;;;17.39;35.26
17060;BME280;8646;49.716;9.266;2023-04-09T12:49:34;100946.25;;;17.55;34.15
17060;BME280;8646;49.716;9.266;2023-04-09T12:52:37;100950.41;;;17.47;34.59
17060;BME280;8646;49.716;9.266;2023-04-09T12:55:40;100953.75;;;17.22;34.87
17060;BME280;8646;49.716;9.266;2023-04-09T12:58:43;100957.91;;;16.84;35.75
17060;BME280;8646;49.716;9.266;2023-04-09T13:01:47;100953.38;;;16.51;35.58
17060;BME280;8646;49.716;9.266;2023-04-09T13:04:50;100954.56;;;16.14;36.62
17060;BME280;8646;49.716;9.266;2023-04-09T13:07:53;100942.47;;;16.35;36.02
17060;BME280;8646;49.716;9.266;2023-04-09T13:10:56;100940.25;;;16.42;35.95
17060;BME280;8646;49.716;9.266;2023-04-09T13:13:59;100939.38;;;16.57;36.31
17060;BME280;8646;49.716;9.266;2023-04-09T13:17:03;100934.97;;;16.86;35.65
17060;BME280;8646;49.716;9.266;2023-04-09T13:20:07;100926.53;;;17.05;35.21
17060;BME280;8646;49.716;9.266;2023-04-09T13:23:09;100920.69;;;17.27;34.81
17060;BME280;8646;49.716;9.266;2023-04-09T13:26:12;100913.03;;;17.62;34.75
17060;BME280;8646;49.716;9.266;2023-04-09T13:29:15;100912.38;;;18.01;34.37
17060;BME280;8646;49.716;9.266;2023-04-09T13:32:19;100903.16;;;18.30;33.84
17060;BME280;8646;49.716;9.266;2023-04-09T13:35:23;100894.13;;;18.56;33.51
17060;BME280;8646;49.716;9.266;2023-04-09T13:38:26;100905.78;;;18.46;33.62
17060;BME280;8646;49.716;9.266;2023-04-09T13:41:30;100908.88;;;17.99;33.24
17060;BME280;8646;49.716;9.266;2023-04-09T13:44:33;100913.66;;;17.67;33.66
17060;BME280;8646;49.716;9.266;2023-04-09T13:47:37;100912.69;;;17.52;33.94
17060;BME280;8646;49.716;9.266;2023-04-09T13:50:40;100894.50;;;17.67;33.81
17060;BME280;8646;49.716;9.266;2023-04-09T13:53:43;100901.25;;;17.89;33.33
17060;BME280;8646;49.716;9.266;2023-04-09T13:56:46;100900.47;;;17.87;33.32
17060;BME280;8646;49.716;9.266;2023-04-09T13:59:50;100894.78;;;17.90;33.60
17060;BME280;8646;49.716;9.266;2023-04-09T14:02:54;100890.97;;;17.93;33.37
17060;BME280;8646;49.716;9.266;2023-04-09T14:05:57;100894.78;;;17.90;33.24
17060;BME280;8646;49.716;9.266;2023-04-09T14:08:59;100889.31;;;17.90;33.54
17060;BME280;8646;49.716;9.266;2023-04-09T14:12:02;100883.06;;;17.88;33.67
17060;BME280;8646;49.716;9.266;2023-04-09T14:15:06;100881.09;;;17.76;33.56
17060;BME280;8646;49.716;9.266;2023-04-09T14:18:10;100877.47;;;17.62;33.90
17060;BME280;8646;49.716;9.266;2023-04-09T14:21:13;100884.38;;;17.53;33.12
17060;BME280;8646;49.716;9.266;2023-04-09T14:24:16;100883.00;;;17.46;33.02
17060;BME280;8646;49.716;9.266;2023-04-09T14:27:20;100883.38;;;17.40;33.68
17060;BME280;8646;49.716;9.266;2023-04-09T14:30:23;100875.97;;;17.42;33.99
17060;BME280;8646;49.716;9.266;2023-04-09T14:33:41;100879.53;;;17.28;33.72
17060;BME280;8646;49.716;9.266;2023-04-09T14:36:43;100873.88;;;17.17;33.95
17060;BME280;8646;49.716;9.266;2023-04-09T14:39:46;100875.00;;;17.13;34.16
17060;BME280;8646;49.716;9.266;2023-04-09T14:42:49;100879.81;;;17.09;33.95
17060;BME280;8646;49.716;9.266;2023-04-09T14:45:52;100868.31;;;17.33;33.92
17060;BME280;8646;49.716;9.266;2023-04-09T14:48:56;100851.34;;;17.42;33.69
17060;BME280;8646;49.716;9.266;2023-04-09T14:51:59;100868.81;;;17.53;33.99
17060;BME280;8646;49.716;9.266;2023-04-09T14:55:02;100872.63;;;17.37;34.05
17060;BME280;8646;49.716;9.266;2023-04-09T14:58:05;100869.47;;;17.29;33.58
17060;BME280;8646;49.716;9.266;2023-04-09T15:01:08;100872.25;;;16.99;34.28
17060;BME280;8646;49.716;9.266;2023-04-09T15:04:12;100865.72;;;17.01;32.98
17060;BME280;8646;49.716;9.266;2023-04-09T15:07:16;100854.94;;;16.98;32.60
17060;BME280;8646;49.716;9.266;2023-04-09T15:10:18;100865.81;;;17.00;33.09
17060;BME280;8646;49.716;9.266;2023-04-09T15:13:22;100862.00;;;17.02;33.02
17060;BME280;8646;49.716;9.266;2023-04-09T15:16:26;100863.56;;;17.06;33.29
17060;BME280;8646;49.716;9.266;2023-04-09T15:19:30;100866.31;;;17.21;32.98
17060;BME280;8646;49.716;9.266;2023-04-09T15:22:33;100863.75;;;17.03;33.34
17060;BME280;8646;49.716;9.266;2023-04-09T15:25:36;100852.03;;;16.71;33.48
17060;BME280;8646;49.716;9.266;2023-04-09T15:28:39;100862.78;;;16.59;34.09
17060;BME280;8646;49.716;9.266;2023-04-09T15:31:41;100864.91;;;16.54;33.26
17060;BME280;8646;49.716;9.266;2023-04-09T15:34:45;100855.47;;;16.59;33.29
17060;BME280;8646;49.716;9.266;2023-04-09T15:37:48;100856.13;;;16.78;33.47
17060;BME280;8646;49.716;9.266;2023-04-09T15:40:52;100855.47;;;16.75;33.15
17060;BME280;8646;49.716;9.266;2023-04-09T15:43:55;100854.50;;;16.76;33.37
17060;BME280;8646;49.716;9.266;2023-04-09T15:46:57;100854.25;;;16.95;33.35
17060;BME280;8646;49.716;9.266;2023-04-09T15:50:02;100841.47;;;16.95;33.08
17060;BME280;8646;49.716;9.266;2023-04-09T15:53:05;100846.88;;;16.81;33.33
17060;BME280;8646;49.716;9.266;2023-04-09T15:56:10;100849.44;;;16.84;33.63
17060;BME280;8646;49.716;9.266;2023-04-09T15:59:15;100844.56;;;16.89;33.54
17060;BME280;8646;49.716;9.266;2023-04-09T16:02:19;100831.94;;;17.02;33.55
17060;BME280;8646;49.716;9.266;2023-04-09T16:05:25;100833.72;;;17.17;33.55
17060;BME280;8646;49.716;9.266;2023-04-09T16:08:28;100834.53;;;17.34;33.15
17060;BME280;8646;49.716;9.266;2023-04-09T16:11:32;100837.53;;;17.43;33.27
17060;BME280;8646;49.716;9.266;2023-04-09T16:14:36;100849.09;;;17.48;33.27
17060;BME280;8646;49.716;9.266;2023-04-09T16:17:39;100842.25;;;17.41;33.33
17060;BME280;8646;49.716;9.266;2023-04-09T16:20:43;100849.44;;;17.28;33.26